< Typhoon 196423 1964 Season Typhoon 196425 >
Typhoon 196424 (DOT)
General InformationTrack Information on Google Maps || Disaster Info.ResourceGoogle EarthGE AnimationAtom FeedGeoJSON
Detalied Best Track (Time Zone = UTC)
Year Month Day Hour Lat. Long. Pressure (hPa) Wind (kt) Class Image Chart
1964 10 7 06 10.9 131.2 1006 0 2 -- Chart
1964 10 7 12 12.0 129.3 1004 0 2 -- Chart
1964 10 7 18 12.7 127.9 1004 0 2 -- Chart
1964 10 8 00 13.3 126.3 1000 0 2 -- Chart
1964 10 8 06 14.0 124.9 1000 0 9 -- Chart
1964 10 8 12 14.7 124.3 1000 0 9 -- Chart
1964 10 8 18 15.5 123.7 1000 0 9 -- Chart
1964 10 9 00 16.5 123.2 995 0 9 -- Chart
1964 10 9 06 17.2 121.9 990 0 9 -- Chart
1964 10 9 12 17.5 120.7 990 0 9 -- Chart
1964 10 9 18 17.6 119.5 990 0 9 -- Chart
1964 10 10 00 17.7 119.0 990 0 9 -- Chart
1964 10 10 06 17.8 118.4 990 0 9 -- Chart
1964 10 10 12 17.9 117.8 990 0 9 -- Chart
1964 10 10 18 18.0 117.2 990 0 9 -- Chart
1964 10 11 00 18.2 116.5 987 0 9 -- Chart
1964 10 11 06 18.6 116.3 986 0 9 -- Chart
1964 10 11 12 18.8 116.0 986 0 9 -- Chart
1964 10 11 18 19.2 115.8 982 0 9 -- Chart
1964 10 12 00 19.5 115.4 982 0 9 -- Chart
1964 10 12 06 20.5 115.2 980 0 9 -- Chart
1964 10 12 12 21.2 114.9 980 0 9 -- Chart
1964 10 12 18 21.7 114.6 980 0 9 -- Chart
1964 10 13 00 22.4 114.4 980 0 9 -- Chart
1964 10 13 06 23.1 114.2 990 0 9 -- Chart
1964 10 13 12 24.2 114.5 1000 0 9 -- Chart
1964 10 13 18 25.3 115.1 1002 0 2 -- Chart
1964 10 14 00 26.5 116.1 1004 0 2 -- Chart
1964 10 14 06 27.1 117.4 1004 0 2 -- Chart
1964 10 14 12 27.8 118.9 1008 0 2 -- Chart
1964 10 14 18 28.0 120.8 1009 0 2 -- Chart
1964 10 15 00 28.0 122.6 1012 0 2 -- Chart
1964 10 15 06 29.0 124.0 1009 0 6 -- Chart
1964 10 15 12 29.0 124.6 1010 0 6 -- Chart
1964 10 15 18 29.0 125.2 1010 0 6 -- Chart
1964 10 16 00 29.2 125.9 1010 0 6 -- Chart
1964 10 16 06 29.9 126.9 1006 0 6 -- Chart
1964 10 16 12 30.7 127.8 1006 0 6 -- Chart
1964 10 16 18 30.8 130.0 1006 0 6 -- Chart
1964 10 17 00 31.2 131.5 1006 0 6 -- Chart
1964 10 17 06 31.8 132.8 1004 0 6 -- Chart
1964 10 17 12 32.0 134.4 1007 0 6 -- Chart
1964 10 17 18 32.0 136.0 1005 0 6 -- Chart
1964 10 18 00 32.0 137.8 1008 0 6 -- Chart
1964 10 18 06 32.9 142.0 1007 0 6 -- Chart
1964 10 18 12 33.0 142.0 1006 0 6 -- Chart
1964 10 18 18 33.0 143.5 1006 0 6 -- Chart
1964 10 19 00 33.0 145.0 1008 0 6 -- Chart
1964 10 19 06 33.8 147.7 1012 0 6 -- Chart
1964 10 19 12 34.9 150.6 1016 0 6 -- Chart
Japan Meteorological Agency Best Track Data | Correction Date : 1989-06-01
< Typhoon 196423 1964 Season Typhoon 196425 >

Help